createdAt,value
2022-11-09T00:00:46.851Z,98062.22
2022-11-09T00:01:48.279Z,98068.31
2022-11-09T00:02:49.778Z,98056.59
2022-11-09T00:03:55.038Z,98050.19
2022-11-09T00:04:56.358Z,98053.34
2022-11-09T00:05:58.612Z,98053.03
2022-11-09T00:07:00.076Z,98056.44
2022-11-09T00:08:01.439Z,98055.34
2022-11-09T00:09:07.487Z,98056.94
2022-11-09T00:10:09.520Z,98058.94
2022-11-09T00:11:11.249Z,98054.56
2022-11-09T00:12:12.732Z,98053.19
2022-11-09T00:13:14.036Z,98050.22
2022-11-09T00:14:18.200Z,98058.16
2022-11-09T00:15:19.552Z,98057.84
2022-11-09T00:16:21.355Z,98050.38
2022-11-09T00:17:22.714Z,98056.13
2022-11-09T00:18:24.128Z,98041.00
2022-11-09T00:19:25.468Z,98052.06
2022-11-09T00:20:26.768Z,98050.66
2022-11-09T00:21:30.490Z,98043.97
2022-11-09T00:22:31.874Z,98051.59
2022-11-09T00:23:33.646Z,98051.44
2022-11-09T00:24:34.985Z,98047.50
2022-11-09T00:25:36.353Z,98044.09
2022-11-09T00:26:37.656Z,98050.66
2022-11-09T00:27:39.026Z,98036.28
2022-11-09T00:28:40.350Z,98033.78
2022-11-09T00:29:41.708Z,98039.88
2022-11-09T00:30:44.246Z,98035.66
2022-11-09T00:31:45.612Z,98038.00
2022-11-09T00:32:48.607Z,98044.84
2022-11-09T00:33:50.955Z,98040.31
2022-11-09T00:34:52.300Z,98034.72
2022-11-09T00:35:53.843Z,98044.69
2022-11-09T00:36:55.169Z,98035.31
2022-11-09T00:37:56.599Z,98037.97
2022-11-09T00:38:59.207Z,98034.56
2022-11-09T00:40:00.548Z,98037.66
2022-11-09T00:41:02.655Z,98027.97
2022-11-09T00:42:06.340Z,98036.72
2022-11-09T00:43:07.711Z,98038.59
2022-11-09T00:44:09.044Z,98038.91
2022-11-09T00:45:10.638Z,98039.34
2022-11-09T00:46:12.093Z,98032.94
2022-11-09T00:47:13.816Z,98038.09
2022-11-09T00:48:15.176Z,98035.75
2022-11-09T00:49:16.740Z,98024.69
2022-11-09T00:50:18.086Z,98029.34
2022-11-09T00:51:19.491Z,98026.66
2022-11-09T00:52:20.840Z,98022.75
2022-11-09T00:53:22.705Z,98025.13
2022-11-09T00:54:24.386Z,98026.22
2022-11-09T00:55:26.358Z,98025.13
2022-11-09T00:56:27.712Z,98027.78
2022-11-09T00:57:29.133Z,98029.31
2022-11-09T00:58:31.426Z,98026.66
2022-11-09T00:59:32.756Z,98029.78
2022-11-09T01:00:34.070Z,98025.13
2022-11-09T01:01:35.535Z,98026.22
2022-11-09T01:02:39.445Z,98029.19
2022-11-09T01:03:41.149Z,98026.84
2022-11-09T01:04:42.615Z,98013.59
2022-11-09T01:05:43.994Z,98029.66
2022-11-09T01:06:45.464Z,98026.22
2022-11-09T01:07:46.918Z,98025.75
2022-11-09T01:08:48.637Z,98033.38
2022-11-09T01:09:50.010Z,98024.34
2022-11-09T01:10:51.338Z,98030.72
2022-11-09T01:11:52.717Z,98029.94
2022-11-09T01:12:56.545Z,98030.28
2022-11-09T01:14:01.097Z,98028.88
2022-11-09T01:15:03.704Z,98031.22
2022-11-09T01:16:06.657Z,98026.81
2022-11-09T01:17:10.577Z,98033.84
2022-11-09T01:18:12.254Z,98030.38
2022-11-09T01:19:13.877Z,98027.72
2022-11-09T01:20:15.628Z,98031.81
2022-11-09T01:21:16.939Z,98030.56
2022-11-09T01:22:18.584Z,98031.66
2022-11-09T01:23:20.143Z,98035.22
2022-11-09T01:24:21.879Z,98040.53
2022-11-09T01:25:23.213Z,98037.44
2022-11-09T01:26:24.581Z,98039.31
2022-11-09T01:27:26.072Z,98038.84
2022-11-09T01:28:27.536Z,98038.06
2022-11-09T01:29:29.725Z,98031.97
2022-11-09T01:30:33.104Z,98031.22
2022-11-09T01:31:34.438Z,98037.28
2022-11-09T01:32:36.767Z,98036.50
2022-11-09T01:33:40.569Z,98030.44
2022-11-09T01:34:41.882Z,98034.00
2022-11-09T01:35:43.222Z,98040.72
2022-11-09T01:36:44.569Z,98050.22
2022-11-09T01:37:45.895Z,98050.56
2022-11-09T01:38:47.753Z,98045.59
2022-11-09T01:39:49.079Z,98049.31
2022-11-09T01:40:50.421Z,98044.81
2022-11-09T01:41:51.752Z,98041.81
2022-11-09T01:42:53.218Z,98042.59
2022-11-09T01:44:06.738Z,98035.41
2022-11-09T01:45:14.127Z,98041.03
2022-11-09T01:46:24.839Z,98037.13
2022-11-09T01:47:26.162Z,98045.09
2022-11-09T01:48:27.444Z,98044.31
2022-11-09T01:49:28.772Z,98042.28
2022-11-09T01:50:34.015Z,98045.28
2022-11-09T01:51:39.654Z,98040.63
2022-11-09T01:52:44.556Z,98043.88
2022-11-09T01:53:47.712Z,98045.00
2022-11-09T01:54:55.074Z,98045.63
2022-11-09T01:55:58.637Z,98044.84
2022-11-09T01:57:02.751Z,98046.72
2022-11-09T01:58:07.336Z,98055.00
2022-11-09T01:59:11.471Z,98050.31
2022-11-09T02:00:14.263Z,98050.63
2022-11-09T02:01:17.605Z,98053.28
2022-11-09T02:02:19.685Z,98057.00
2022-11-09T02:03:24.062Z,98055.13
2022-11-09T02:04:28.765Z,98062.81
2022-11-09T02:05:32.705Z,98066.84
2022-11-09T02:06:35.486Z,98066.41
2022-11-09T02:07:37.644Z,98059.06
2022-11-09T02:08:39.512Z,98063.91
2022-11-09T02:09:45.483Z,98063.13
2022-11-09T02:10:52.586Z,98067.19
2022-11-09T02:11:54.058Z,98074.97
2022-11-09T02:12:56.466Z,98076.84
2022-11-09T02:14:00.463Z,98081.38
2022-11-09T02:15:06.801Z,98082.81
2022-11-09T02:16:09.359Z,98075.78
2022-11-09T02:17:12.218Z,98083.25
2022-11-09T02:18:13.867Z,98071.41
2022-11-09T02:19:15.468Z,98073.59
2022-11-09T02:20:16.979Z,98078.13
2022-11-09T02:21:18.744Z,98070.47
2022-11-09T02:22:20.146Z,98072.81
2022-11-09T02:23:21.912Z,98067.84
2022-11-09T02:24:23.512Z,98075.00
2022-11-09T02:25:24.873Z,98067.84
2022-11-09T02:26:35.718Z,98075.00
2022-11-09T02:27:37.390Z,98078.44
2022-11-09T02:28:39.333Z,98085.28
2022-11-09T02:29:43.889Z,98087.94
2022-11-09T02:30:48.178Z,98078.91
2022-11-09T02:31:53.344Z,98078.91
2022-11-09T02:32:54.777Z,98083.91
2022-11-09T02:34:02.089Z,98079.06
2022-11-09T02:35:03.667Z,98079.06
2022-11-09T02:36:05.160Z,98076.41
2022-11-09T02:37:06.471Z,98076.88
2022-11-09T02:38:11.640Z,98062.81
2022-11-09T02:39:14.438Z,98065.47
2022-11-09T02:40:22.435Z,98073.13
2022-11-09T02:41:24.011Z,98068.59
2022-11-09T02:42:25.585Z,98069.38
2022-11-09T02:43:26.927Z,98072.81
2022-11-09T02:44:29.597Z,98079.66
2022-11-09T02:45:31.097Z,98077.03
2022-11-09T02:46:33.756Z,98084.97
2022-11-09T02:47:35.495Z,98082.03
2022-11-09T02:48:36.844Z,98084.34
2022-11-09T02:49:38.197Z,98087.78
2022-11-09T02:50:39.517Z,98083.25
2022-11-09T02:51:40.853Z,98088.56
2022-11-09T02:52:42.200Z,98081.38
2022-11-09T02:53:43.788Z,98086.41
2022-11-09T02:54:45.625Z,98084.19
2022-11-09T02:55:47.114Z,98099.00
2022-11-09T02:56:48.725Z,98094.47
2022-11-09T02:57:50.741Z,98094.19
2022-11-09T02:58:53.468Z,98101.06
2022-11-09T02:59:54.797Z,98099.94
2022-11-09T03:00:56.265Z,98099.63
2022-11-09T03:01:59.158Z,98101.22
2022-11-09T03:03:04.224Z,98097.47
2022-11-09T03:04:05.802Z,98102.44
2022-11-09T03:05:07.986Z,98099.78
2022-11-09T03:06:10.325Z,98089.94
2022-11-09T03:07:12.090Z,98100.56
2022-11-09T03:08:14.176Z,98104.47
2022-11-09T03:09:15.610Z,98102.59
2022-11-09T03:10:17.025Z,98104.47
2022-11-09T03:11:18.502Z,98103.06
2022-11-09T03:12:20.406Z,98111.50
2022-11-09T03:13:22.178Z,98107.25
2022-11-09T03:14:23.869Z,98106.81
2022-11-09T03:15:29.292Z,98114.75
2022-11-09T03:16:30.736Z,98117.75
2022-11-09T03:17:32.947Z,98106.66
2022-11-09T03:18:34.904Z,98109.63
2022-11-09T03:19:36.393Z,98114.16
2022-11-09T03:20:37.892Z,98098.22
2022-11-09T03:21:39.237Z,98106.81
2022-11-09T03:22:40.654Z,98098.41
2022-11-09T03:23:43.026Z,98099.00
2022-11-09T03:24:44.406Z,98103.22
2022-11-09T03:25:46.378Z,98099.94
2022-11-09T03:26:47.737Z,98101.66
2022-11-09T03:27:49.265Z,98109.31
2022-11-09T03:28:50.626Z,98097.75
2022-11-09T03:29:52.081Z,98097.63
2022-11-09T03:30:54.388Z,98108.22
2022-11-09T03:31:55.907Z,98104.63
2022-11-09T03:33:00.838Z,98103.22
2022-11-09T03:34:02.403Z,98114.47
2022-11-09T03:35:03.870Z,98110.56
2022-11-09T03:36:05.794Z,98121.00
2022-11-09T03:37:07.125Z,98114.63
2022-11-09T03:38:08.576Z,98119.47
2022-11-09T03:39:10.672Z,98115.56
2022-11-09T03:40:12.112Z,98118.22
2022-11-09T03:41:13.532Z,98120.56
2022-11-09T03:42:15.156Z,98114.47
2022-11-09T03:43:16.733Z,98118.22
2022-11-09T03:44:19.431Z,98111.03
2022-11-09T03:45:21.083Z,98106.81
2022-11-09T03:46:22.479Z,98106.53
2022-11-09T03:47:23.890Z,98110.09
2022-11-09T03:48:25.231Z,98110.88
2022-11-09T03:49:26.589Z,98118.06
2022-11-09T03:50:29.081Z,98119.47
2022-11-09T03:51:30.452Z,98118.22
2022-11-09T03:52:31.821Z,98116.97
2022-11-09T03:53:33.176Z,98115.72
2022-11-09T03:54:34.563Z,98111.81
2022-11-09T03:55:36.097Z,98111.03
2022-11-09T03:56:38.291Z,98111.03
2022-11-09T03:57:39.633Z,98119.44
2022-11-09T03:58:41.001Z,98111.50
2022-11-09T03:59:42.341Z,98118.06
2022-11-09T04:00:44.093Z,98118.84
2022-11-09T04:01:45.556Z,98121.50
2022-11-09T04:02:47.107Z,98117.28
2022-11-09T04:03:48.417Z,98108.22
2022-11-09T04:04:49.803Z,98114.31
2022-11-09T04:05:51.153Z,98115.88
2022-11-09T04:06:52.531Z,98114.00
2022-11-09T04:07:55.564Z,98105.75
2022-11-09T04:08:56.941Z,98116.03
2022-11-09T04:09:58.257Z,98108.06
2022-11-09T04:10:59.588Z,98109.94
2022-11-09T04:12:00.966Z,98108.84
2022-11-09T04:13:02.271Z,98108.53
2022-11-09T04:14:03.656Z,98106.34
2022-11-09T04:15:05.279Z,98108.69
2022-11-09T04:16:06.721Z,98112.44
2022-11-09T04:17:08.098Z,98111.97
2022-11-09T04:18:11.992Z,98115.88
2022-11-09T04:19:13.376Z,98111.19
2022-11-09T04:20:14.741Z,98115.41
2022-11-09T04:21:19.148Z,98115.41
2022-11-09T04:22:24.226Z,98127.91
2022-11-09T04:23:25.677Z,98116.47
2022-11-09T04:24:27.041Z,98123.66
2022-11-09T04:25:31.387Z,98122.59
2022-11-09T04:26:32.797Z,98121.00
2022-11-09T04:27:34.132Z,98126.03
2022-11-09T04:28:35.475Z,98122.59
2022-11-09T04:29:36.821Z,98129.91
2022-11-09T04:30:38.205Z,98130.69
2022-11-09T04:31:40.000Z,98132.09
2022-11-09T04:32:41.350Z,98123.81
2022-11-09T04:33:42.798Z,98131.78
2022-11-09T04:34:44.186Z,98138.97
2022-11-09T04:35:45.526Z,98138.97
2022-11-09T04:36:46.885Z,98135.22
2022-11-09T04:37:58.335Z,98137.53
2022-11-09T04:38:59.761Z,98133.81
2022-11-09T04:40:01.120Z,98124.00
2022-11-09T04:41:03.885Z,98122.56
2022-11-09T04:42:05.260Z,98125.06
2022-11-09T04:43:07.733Z,98122.28
2022-11-09T04:44:09.258Z,98117.25
2022-11-09T04:45:10.706Z,98121.00
2022-11-09T04:46:12.158Z,98126.31
2022-11-09T04:47:13.522Z,98129.28
2022-11-09T04:48:14.843Z,98127.75
2022-11-09T04:49:16.197Z,98124.59
2022-11-09T04:50:17.558Z,98124.94
2022-11-09T04:51:19.021Z,98133.50
2022-11-09T04:52:20.620Z,98128.84
2022-11-09T04:53:22.366Z,98139.75
2022-11-09T04:54:23.947Z,98133.34
2022-11-09T04:55:25.390Z,98128.34
2022-11-09T04:56:26.779Z,98133.03
2022-11-09T04:57:28.084Z,98125.38
2022-11-09T04:58:29.920Z,98123.53
2022-11-09T04:59:31.496Z,98130.69
2022-11-09T05:00:33.346Z,98122.28
2022-11-09T05:01:34.698Z,98121.16
2022-11-09T05:02:36.159Z,98123.81
2022-11-09T05:03:37.654Z,98116.03
2022-11-09T05:04:39.070Z,98120.88
2022-11-09T05:05:44.134Z,98114.47
2022-11-09T05:06:49.490Z,98105.09
2022-11-09T05:07:53.988Z,98115.41
2022-11-09T05:08:55.854Z,98113.84
2022-11-09T05:09:57.297Z,98111.66
2022-11-09T05:11:00.150Z,98113.53
2022-11-09T05:12:01.621Z,98116.03
2022-11-09T05:13:04.550Z,98117.91
2022-11-09T05:14:07.415Z,98119.28
2022-11-09T05:15:09.014Z,98120.22
2022-11-09T05:16:10.652Z,98116.19
2022-11-09T05:17:14.457Z,98120.22
2022-11-09T05:18:15.844Z,98115.56
2022-11-09T05:19:17.208Z,98118.84
2022-11-09T05:20:18.648Z,98124.59
2022-11-09T05:21:20.023Z,98119.00
2022-11-09T05:22:21.552Z,98113.53
2022-11-09T05:23:23.403Z,98112.28
2022-11-09T05:24:25.003Z,98108.06
2022-11-09T05:25:26.384Z,98115.88
2022-11-09T05:26:32.126Z,98117.13
2022-11-09T05:27:33.490Z,98110.25
2022-11-09T05:28:34.824Z,98113.06
2022-11-09T05:29:36.199Z,98108.69
2022-11-09T05:30:37.740Z,98106.34
2022-11-09T05:31:39.677Z,98107.13
2022-11-09T05:32:48.561Z,98109.78
2022-11-09T05:33:50.645Z,98109.63
2022-11-09T05:34:57.413Z,98114.16
2022-11-09T05:35:58.894Z,98106.19
2022-11-09T05:37:03.555Z,98107.75
2022-11-09T05:38:05.661Z,98102.31
2022-11-09T05:39:07.283Z,98099.94
2022-11-09T05:40:09.246Z,98097.28
2022-11-09T05:41:10.651Z,98097.63
2022-11-09T05:42:11.966Z,98099.81
2022-11-09T05:43:13.317Z,98103.69
2022-11-09T05:44:14.655Z,98102.75
2022-11-09T05:46:38.692Z,98103.38
2022-11-09T05:47:40.857Z,98101.81
2022-11-09T05:48:42.800Z,98107.13
2022-11-09T05:49:44.108Z,98104.31
2022-11-09T05:50:45.558Z,98105.25
2022-11-09T05:51:55.272Z,98102.00
2022-11-09T05:52:58.460Z,98107.63
2022-11-09T05:53:59.792Z,98104.47
2022-11-09T05:55:01.449Z,98098.41
2022-11-09T05:56:07.024Z,98101.38
2022-11-09T05:57:08.519Z,98099.81
2022-11-09T05:58:10.045Z,98096.38
2022-11-09T05:59:11.340Z,98100.88
2022-11-09T06:00:13.029Z,98101.81
2022-11-09T06:01:15.613Z,98114.31
2022-11-09T06:02:17.024Z,98104.81
2022-11-09T06:03:18.755Z,98103.25
2022-11-09T06:04:20.418Z,98105.13
2022-11-09T06:05:21.729Z,98104.31
2022-11-09T06:06:23.446Z,98102.47
2022-11-09T06:07:24.765Z,98106.69
2022-11-09T06:08:26.070Z,98105.56
2022-11-09T06:09:27.891Z,98103.25
2022-11-09T06:10:29.216Z,98102.75
2022-11-09T06:11:30.707Z,98106.34
2022-11-09T06:12:34.582Z,98109.00
2022-11-09T06:13:36.793Z,98111.66
2022-11-09T06:14:41.548Z,98102.16
2022-11-09T06:15:42.936Z,98110.88
2022-11-09T06:16:44.291Z,98112.13
2022-11-09T06:17:50.663Z,98111.34
2022-11-09T06:18:52.011Z,98115.88
2022-11-09T06:19:53.352Z,98115.09
2022-11-09T06:20:55.844Z,98119.63
2022-11-09T06:21:57.161Z,98121.16
2022-11-09T06:23:03.936Z,98125.69
2022-11-09T06:24:05.889Z,98129.91
2022-11-09T06:25:07.397Z,98133.03
2022-11-09T06:26:10.113Z,98142.09
2022-11-09T06:27:11.506Z,98138.63
2022-11-09T06:28:12.830Z,98144.75
2022-11-09T06:29:14.164Z,98152.84
2022-11-09T06:30:15.835Z,98153.16
2022-11-09T06:31:17.214Z,98148.97
2022-11-09T06:32:18.593Z,98149.72
2022-11-09T06:33:20.123Z,98152.38
2022-11-09T06:34:21.975Z,98145.97
2022-11-09T06:35:23.286Z,98132.25
2022-11-09T06:36:24.621Z,98135.06
2022-11-09T06:37:25.949Z,98127.56
2022-11-09T06:38:27.806Z,98127.25
2022-11-09T06:39:29.431Z,98135.22
2022-11-09T06:40:33.301Z,98133.66
2022-11-09T06:41:34.874Z,98130.22
2022-11-09T06:42:38.286Z,98131.00
2022-11-09T06:43:40.274Z,98136.75
2022-11-09T06:44:41.616Z,98138.34
2022-11-09T06:45:42.970Z,98141.28
2022-11-09T06:46:44.268Z,98144.72
2022-11-09T06:47:45.599Z,98145.03
2022-11-09T06:48:51.878Z,98139.28
2022-11-09T06:49:55.663Z,98151.44
2022-11-09T06:51:00.566Z,98141.16
2022-11-09T06:52:01.971Z,98145.38
2022-11-09T06:53:04.941Z,98150.97
2022-11-09T06:54:06.275Z,98149.56
2022-11-09T06:55:11.208Z,98157.84
2022-11-09T06:56:12.566Z,98154.72
2022-11-09T06:57:13.986Z,98153.94
2022-11-09T06:58:15.566Z,98157.38
2022-11-09T06:59:16.961Z,98161.91
2022-11-09T07:00:19.110Z,98165.31
2022-11-09T07:01:21.515Z,98165.31
2022-11-09T07:02:30.642Z,98172.50
2022-11-09T07:03:32.031Z,98181.25
2022-11-09T07:04:33.439Z,98183.91
2022-11-09T07:05:37.919Z,98192.63
2022-11-09T07:06:40.113Z,98214.34
2022-11-09T07:07:41.496Z,98239.16
2022-11-09T07:08:42.834Z,98263.50
2022-11-09T07:09:44.140Z,98280.19
2022-11-09T07:10:45.549Z,98273.31
2022-11-09T07:11:48.628Z,98258.66
2022-11-09T07:12:49.926Z,98248.81
2022-11-09T07:13:56.177Z,98262.38
2022-11-09T07:14:58.669Z,98261.59
2022-11-09T07:15:59.983Z,98250.53
2022-11-09T07:17:01.375Z,98252.69
2022-11-09T07:18:03.862Z,98254.28
2022-11-09T07:19:05.176Z,98251.91
2022-11-09T07:20:07.826Z,98245.53
2022-11-09T07:21:14.119Z,98242.09
2022-11-09T07:22:15.733Z,98239.13
2022-11-09T07:23:17.694Z,98247.88
2022-11-09T07:24:19.326Z,98240.69
2022-11-09T07:25:20.847Z,98239.13
2022-11-09T07:26:22.211Z,98239.13
2022-11-09T07:27:27.536Z,98229.31
2022-11-09T07:28:29.620Z,98232.41
2022-11-09T07:29:30.951Z,98223.41
2022-11-09T07:30:32.339Z,98217.00
2022-11-09T07:31:33.651Z,98220.09
2022-11-09T07:33:06.763Z,98222.91
2022-11-09T07:33:57.160Z,98218.06
2022-11-09T07:34:58.514Z,98219.63
2022-11-09T07:36:00.700Z,98219.34
2022-11-09T07:37:02.046Z,98225.09
2022-11-09T07:38:03.353Z,98224.81
2022-11-09T07:39:05.239Z,98222.63
2022-11-09T07:40:06.991Z,98224.94
2022-11-09T07:41:08.285Z,98222.28
2022-11-09T07:42:09.611Z,98214.03
2022-11-09T07:43:15.348Z,98215.28
2022-11-09T07:44:17.322Z,98205.16
2022-11-09T07:45:18.692Z,98204.34
2022-11-09T07:46:20.101Z,98207.94
2022-11-09T07:47:21.481Z,98209.19
2022-11-09T07:48:22.865Z,98216.84
2022-11-09T07:49:24.217Z,98214.97
2022-11-09T07:50:25.789Z,98213.69
2022-11-09T07:51:27.133Z,98212.91
2022-11-09T07:52:28.470Z,98220.88
2022-11-09T07:53:29.831Z,98220.59
2022-11-09T07:54:31.220Z,98218.72
2022-11-09T07:55:32.741Z,98227.13
2022-11-09T07:56:34.271Z,98227.91
2022-11-09T07:57:35.642Z,98228.69
2022-11-09T07:58:37.020Z,98225.25
2022-11-09T07:59:38.326Z,98232.28
2022-11-09T08:00:40.296Z,98228.84
2022-11-09T08:01:41.697Z,98233.38
2022-11-09T08:02:43.039Z,98228.84
2022-11-09T08:03:44.339Z,98225.88
2022-11-09T08:04:45.656Z,98228.22
2022-11-09T08:05:47.468Z,98230.56
2022-11-09T08:06:51.411Z,98228.69
2022-11-09T08:07:56.719Z,98219.16
2022-11-09T08:08:58.029Z,98224.78
2022-11-09T08:09:59.364Z,98223.38
2022-11-09T08:11:00.743Z,98223.38
2022-11-09T08:12:02.095Z,98233.66
2022-11-09T08:13:05.032Z,98231.19
2022-11-09T08:14:06.332Z,98227.75
2022-11-09T08:15:07.957Z,98231.19
2022-11-09T08:16:09.274Z,98227.56
2022-11-09T08:17:10.574Z,98219.28
2022-11-09T08:18:13.291Z,98221.31
2022-11-09T08:19:14.863Z,98222.56
2022-11-09T08:20:16.463Z,98222.56
2022-11-09T08:21:18.451Z,98212.09
2022-11-09T08:22:19.765Z,98224.25
2022-11-09T08:23:21.515Z,98222.38
2022-11-09T08:24:23.183Z,98225.84
2022-11-09T08:25:24.535Z,98222.53
2022-11-09T08:26:25.862Z,98215.06
2022-11-09T08:27:30.064Z,98209.91
2022-11-09T08:28:31.938Z,98208.81
2022-11-09T08:29:33.229Z,98200.84
2022-11-09T08:30:34.621Z,98199.75
2022-11-09T08:31:35.936Z,98197.22
2022-11-09T08:32:37.247Z,98202.84
2022-11-09T08:33:40.036Z,98208.94
2022-11-09T08:34:41.357Z,98210.50
2022-11-09T08:35:42.685Z,98218.47
2022-11-09T08:36:44.004Z,98219.28
2022-11-09T08:37:45.771Z,98214.75
2022-11-09T08:38:47.141Z,98220.66
2022-11-09T08:39:48.464Z,98214.59
2022-11-09T08:40:49.821Z,98216.47
2022-11-09T08:41:51.149Z,98218.78
2022-11-09T08:42:52.510Z,98222.72
2022-11-09T08:43:53.924Z,98220.16
2022-11-09T08:44:55.344Z,98225.03
2022-11-09T08:45:56.687Z,98223.47
2022-11-09T08:46:58.046Z,98222.72
2022-11-09T08:47:59.900Z,98223.94
2022-11-09T08:49:01.275Z,98214.09
2022-11-09T08:50:03.720Z,98211.91
2022-11-09T08:51:05.084Z,98210.03
2022-11-09T08:52:06.395Z,98208.28
2022-11-09T08:53:07.813Z,98201.41
2022-11-09T08:54:09.155Z,98201.88
2022-11-09T08:55:10.524Z,98205.47
2022-11-09T08:56:11.882Z,98212.47
2022-11-09T08:57:13.221Z,98215.91
2022-11-09T08:58:14.796Z,98212.94
2022-11-09T08:59:16.138Z,98214.19
2022-11-09T09:00:17.612Z,98209.00
2022-11-09T09:01:19.059Z,98214.00
2022-11-09T09:02:21.584Z,98219.91
2022-11-09T09:03:23.064Z,98211.47
2022-11-09T09:04:24.761Z,98218.38
2022-11-09T09:05:26.141Z,98214.13
2022-11-09T09:06:31.072Z,98219.91
2022-11-09T09:07:32.921Z,98218.38
2022-11-09T09:08:34.288Z,98215.72
2022-11-09T09:09:35.686Z,98212.72
2022-11-09T09:10:37.063Z,98217.72
2022-11-09T09:11:38.426Z,98219.25
2022-11-09T09:12:39.760Z,98226.47
2022-11-09T09:13:43.533Z,98213.50
2022-11-09T09:14:45.129Z,98213.16
2022-11-09T09:15:46.496Z,98217.84
2022-11-09T09:16:47.780Z,98213.31
2022-11-09T09:17:49.124Z,98215.03
2022-11-09T09:18:50.431Z,98221.13
2022-11-09T09:19:51.773Z,98222.38
2022-11-09T09:20:53.075Z,98217.50
2022-11-09T09:21:54.933Z,98221.41
2022-11-09T09:22:59.862Z,98228.91
2022-11-09T09:24:01.235Z,98226.06
2022-11-09T09:25:02.693Z,98224.19
2022-11-09T09:26:04.022Z,98223.22
2022-11-09T09:27:05.375Z,98220.56
2022-11-09T09:28:06.693Z,98220.41
2022-11-09T09:29:08.018Z,98225.25
2022-11-09T09:30:09.553Z,98225.59
2022-11-09T09:31:14.311Z,98222.25
2022-11-09T09:32:19.490Z,98229.78
2022-11-09T09:33:20.834Z,98220.41
2022-11-09T09:34:22.134Z,98228.53
2022-11-09T09:35:23.493Z,98225.09
2022-11-09T09:36:24.971Z,98227.44
2022-11-09T09:37:26.351Z,98233.09
2022-11-09T09:38:28.431Z,98234.34
2022-11-09T09:39:29.778Z,98234.44
2022-11-09T09:40:31.091Z,98243.53
2022-11-09T09:41:35.250Z,98235.38
2022-11-09T09:42:37.731Z,98240.84
2022-11-09T09:43:43.938Z,98242.97
2022-11-09T09:44:45.405Z,98244.22
2022-11-09T09:45:51.294Z,98248.13
2022-11-09T09:47:05.321Z,98255.47
2022-11-09T09:48:06.635Z,98249.63
2022-11-09T09:49:13.179Z,98254.31
2022-11-09T09:50:18.885Z,98247.06
2022-11-09T09:51:28.576Z,98258.81
2022-11-09T09:52:50.659Z,98253.28
2022-11-09T09:54:05.603Z,98253.75
2022-11-09T09:55:18.999Z,98258.88
2022-11-09T09:56:34.340Z,98257.75
2022-11-09T09:57:41.515Z,98254.59
2022-11-09T09:58:51.629Z,98258.28
2022-11-09T09:59:54.728Z,98254.50
2022-11-09T10:00:58.248Z,98250.09
2022-11-09T10:01:59.618Z,98248.81
2022-11-09T10:03:01.253Z,98252.09
2022-11-09T10:04:02.787Z,98252.53
2022-11-09T10:05:08.750Z,98252.53
2022-11-09T10:06:16.109Z,98251.22
2022-11-09T10:07:30.594Z,98259.34
2022-11-09T10:08:44.015Z,98250.69
2022-11-09T10:09:54.413Z,98255.81
2022-11-09T10:11:13.993Z,98258.16
2022-11-09T10:12:26.566Z,98252.19
2022-11-09T10:13:27.880Z,98259.84
2022-11-09T10:14:47.427Z,98258.63
2022-11-09T10:15:54.770Z,98259.50
2022-11-09T10:17:12.042Z,98251.97
2022-11-09T10:18:19.607Z,98255.41
2022-11-09T10:19:23.956Z,98249.44
2022-11-09T10:20:36.914Z,98250.00
2022-11-09T10:21:41.319Z,98251.56
2022-11-09T10:22:57.872Z,98251.22
2022-11-09T10:24:06.026Z,98252.47
2022-11-09T10:25:50.253Z,98243.13
2022-11-09T10:26:52.728Z,98246.03
2022-11-09T10:27:58.759Z,98243.69
2022-11-09T10:29:15.492Z,98246.50
2022-11-09T10:30:19.002Z,98232.94
2022-11-09T10:31:21.363Z,98244.03
2022-11-09T10:32:23.576Z,98241.28
2022-11-09T10:33:26.593Z,98242.50
2022-11-09T10:34:29.859Z,98231.75
2022-11-09T10:35:35.169Z,98229.50
2022-11-09T10:36:39.293Z,98240.31
2022-11-09T10:37:44.773Z,98229.75
2022-11-09T10:38:49.588Z,98225.97
2022-11-09T10:40:22.291Z,98228.63
2022-11-09T10:41:43.885Z,98220.63
2022-11-09T10:43:14.416Z,98215.97
2022-11-09T10:44:34.617Z,98216.84
2022-11-09T10:45:59.908Z,98219.28
2022-11-09T10:47:20.024Z,98217.88
2022-11-09T10:48:40.235Z,98216.19
2022-11-09T10:50:20.981Z,98218.63
2022-11-09T10:51:42.618Z,98214.44
2022-11-09T10:53:22.935Z,98221.75
2022-11-09T10:54:42.680Z,98217.97
2022-11-09T10:56:02.583Z,98208.09
2022-11-09T10:57:23.851Z,98205.50
2022-11-09T10:58:48.328Z,98210.31
2022-11-09T11:00:16.331Z,98208.41
2022-11-09T11:01:36.831Z,98210.84
2022-11-09T11:02:56.612Z,98204.53
2022-11-09T11:04:21.357Z,98201.50
2022-11-09T11:05:41.147Z,98208.16
2022-11-09T11:07:15.827Z,98202.59
2022-11-09T11:08:40.618Z,98200.81
2022-11-09T11:10:15.652Z,98204.38
2022-11-09T11:11:37.559Z,98206.41
2022-11-09T11:13:18.159Z,98201.06
2022-11-09T11:14:42.649Z,98209.28
2022-11-09T11:16:13.377Z,98202.72
2022-11-09T11:17:36.553Z,98203.50
2022-11-09T11:18:56.594Z,98197.63
2022-11-09T11:20:25.807Z,98195.81
2022-11-09T11:21:45.521Z,98199.72
2022-11-09T11:23:10.515Z,98198.69
2022-11-09T11:24:40.343Z,98192.47
2022-11-09T11:26:11.992Z,98185.00
2022-11-09T11:27:36.205Z,98188.44
2022-11-09T11:28:59.716Z,98189.22
2022-11-09T11:30:20.925Z,98185.13
2022-11-09T11:31:40.616Z,98183.22
2022-11-09T11:33:00.477Z,98181.09
2022-11-09T11:34:45.597Z,98182.31
2022-11-09T11:36:06.782Z,98184.03
2022-11-09T11:37:26.628Z,98177.69
2022-11-09T11:39:05.074Z,98177.91
2022-11-09T11:40:24.965Z,98176.41
2022-11-09T11:41:56.278Z,98184.97
2022-11-09T11:43:28.405Z,98182.28
2022-11-09T11:44:59.452Z,98186.44
2022-11-09T11:46:27.159Z,98176.66
2022-11-09T11:47:56.659Z,98183.03
2022-11-09T11:49:19.501Z,98180.69
2022-11-09T11:50:43.030Z,98181.59
2022-11-09T11:52:12.163Z,98187.34
2022-11-09T11:53:58.224Z,98183.56
2022-11-09T11:55:36.909Z,98176.25
2022-11-09T11:56:56.847Z,98176.66
2022-11-09T11:58:40.110Z,98179.78
2022-11-09T12:00:08.788Z,98179.03
2022-11-09T12:01:28.591Z,98179.53
2022-11-09T12:02:48.423Z,98174.72
2022-11-09T12:04:20.281Z,98182.63
2022-11-09T12:05:40.072Z,98177.28
2022-11-09T12:07:26.099Z,98175.28
2022-11-09T12:09:09.681Z,98171.84
2022-11-09T12:10:45.969Z,98164.28
2022-11-09T12:12:15.064Z,98177.75
2022-11-09T12:13:44.489Z,98168.16
2022-11-09T12:15:07.112Z,98163.16
2022-11-09T12:16:45.381Z,98161.94
2022-11-09T12:18:05.241Z,98165.06
2022-11-09T12:19:37.116Z,98158.59
2022-11-09T12:21:10.738Z,98165.50
2022-11-09T12:22:47.529Z,98161.72
2022-11-09T12:24:23.648Z,98154.38
2022-11-09T12:25:52.809Z,98153.41
2022-11-09T12:27:33.298Z,98145.38
2022-11-09T12:29:02.597Z,98146.63
2022-11-09T12:30:24.125Z,98146.50
2022-11-09T12:32:02.975Z,98142.63
2022-11-09T12:33:33.313Z,98138.06
2022-11-09T12:35:04.006Z,98151.50
2022-11-09T12:36:36.647Z,98148.50
2022-11-09T12:38:08.252Z,98147.28
2022-11-09T12:39:27.994Z,98145.75
2022-11-09T12:40:50.587Z,98150.72
2022-11-09T12:42:13.645Z,98148.41
2022-11-09T12:43:36.821Z,98147.97
2022-11-09T12:44:56.529Z,98153.56
2022-11-09T12:46:18.260Z,98149.66
2022-11-09T12:47:41.543Z,98157.34
2022-11-09T12:49:03.020Z,98160.47
2022-11-09T12:50:24.146Z,98154.00
2022-11-09T12:51:44.076Z,98149.53
2022-11-09T12:53:04.906Z,98151.50
2022-11-09T12:54:25.259Z,98152.72
2022-11-09T12:55:57.321Z,98147.28
2022-11-09T12:57:21.955Z,98141.06